createdAt,value
2022-08-19T00:07:54.230Z,101509.69
2022-08-19T00:17:58.976Z,101549.25
2022-08-19T00:28:02.657Z,101364.25
2022-08-19T00:38:08.106Z,101357.09
2022-08-19T00:48:14.905Z,101594.47
2022-08-19T00:58:29.167Z,101583.88
2022-08-19T01:08:32.815Z,101572.81
2022-08-19T01:18:42.213Z,101572.00
2022-08-19T01:28:48.954Z,101346.41
2022-08-19T01:38:56.252Z,101591.88
2022-08-19T01:49:01.748Z,101481.63
2022-08-19T01:59:09.777Z,101620.53
2022-08-19T02:09:14.311Z,101621.72
2022-08-19T02:19:18.168Z,101629.53
2022-08-19T02:29:22.771Z,101631.16
2022-08-19T02:39:26.369Z,101559.66
2022-08-19T02:49:34.611Z,101538.69
2022-08-19T02:59:37.953Z,101675.38
2022-08-19T03:09:43.851Z,101590.28
2022-08-19T03:19:47.040Z,101689.75
2022-08-19T03:29:52.433Z,101698.31
2022-08-19T03:39:56.025Z,101688.22
2022-08-19T03:50:02.282Z,101705.41
2022-08-19T04:00:13.149Z,101666.78
2022-08-19T04:10:18.789Z,101687.16
2022-08-19T04:20:21.768Z,101737.03
2022-08-19T04:30:26.211Z,101728.78
2022-08-19T04:40:47.902Z,101747.72
2022-08-19T04:50:58.632Z,101753.50
2022-08-19T05:01:02.367Z,101756.06
2022-08-19T05:11:14.166Z,101761.09
2022-08-19T05:21:39.036Z,101653.59
2022-08-19T05:31:45.648Z,101743.16
2022-08-19T05:41:52.038Z,101743.00
2022-08-19T05:51:57.606Z,101745.25
2022-08-19T06:02:02.355Z,101733.25
2022-08-19T06:12:08.975Z,101811.84
2022-08-19T06:22:14.293Z,101732.88
2022-08-19T06:32:20.282Z,101818.25
2022-08-19T06:42:24.098Z,101806.97
2022-08-19T06:52:29.171Z,101820.00
2022-08-19T07:02:32.719Z,101802.03
2022-08-19T07:12:38.188Z,101651.50
2022-08-19T07:22:41.953Z,101801.53
2022-08-19T07:32:48.126Z,101790.38
2022-08-19T07:42:53.742Z,101801.47
2022-08-19T07:52:58.306Z,101798.69
2022-08-19T08:03:01.528Z,101846.53
2022-08-19T08:13:08.858Z,101854.00
2022-08-19T08:23:27.059Z,101817.19
2022-08-19T08:33:34.044Z,101694.41
2022-08-19T08:43:45.196Z,101812.38
2022-08-19T08:53:56.208Z,101834.44
2022-08-19T09:04:02.558Z,101836.31
2022-08-19T09:14:40.811Z,101837.66
2022-08-19T09:24:42.102Z,101717.03
2022-08-19T09:34:51.234Z,101798.97
2022-08-19T09:44:54.592Z,101791.63
2022-08-19T09:54:59.722Z,101804.66
2022-08-19T10:05:26.631Z,101815.78
2022-08-19T10:15:31.901Z,101670.75
2022-08-19T10:25:51.079Z,101848.81
2022-08-19T10:36:02.985Z,101815.59
2022-08-19T10:46:14.252Z,101808.25
2022-08-19T10:56:40.099Z,101793.56
2022-08-19T11:06:44.955Z,101746.38
2022-08-19T11:16:51.607Z,101742.66
2022-08-19T11:27:01.670Z,101738.34
2022-08-19T11:37:07.593Z,101813.03
2022-08-19T11:47:11.346Z,101699.72
2022-08-19T11:57:18.563Z,101806.31
2022-08-19T12:07:21.953Z,101780.03
2022-08-19T12:17:27.622Z,101823.50
2022-08-19T12:27:34.715Z,101745.81
2022-08-19T12:37:57.022Z,101827.84
2022-08-19T12:48:01.019Z,101886.19
2022-08-19T12:58:08.169Z,101773.78
2022-08-19T13:08:12.633Z,101845.19
2022-08-19T13:18:17.162Z,101850.56
2022-08-19T13:28:20.303Z,101848.75
2022-08-19T13:38:33.400Z,101801.44
2022-08-19T13:48:37.427Z,101856.09
2022-08-19T13:58:42.090Z,101846.34
2022-08-19T14:08:46.349Z,101772.06
2022-08-19T14:18:51.490Z,101837.25
2022-08-19T14:28:55.984Z,101855.09
2022-08-19T14:39:02.215Z,101813.19
2022-08-19T14:49:09.473Z,101768.13
2022-08-19T14:59:14.904Z,101758.03
2022-08-19T15:09:17.962Z,101824.22
2022-08-19T15:19:22.648Z,101851.44
2022-08-19T15:29:26.932Z,101788.53
2022-08-19T15:39:31.752Z,101834.97
2022-08-19T15:49:35.024Z,101834.25
2022-08-19T16:00:02.904Z,101817.72
2022-08-19T16:10:27.312Z,101852.59
2022-08-19T16:20:33.080Z,101826.94
2022-08-19T16:30:40.889Z,101857.88
2022-08-19T16:40:47.371Z,101823.66
2022-08-19T16:50:51.385Z,101729.38
2022-08-19T17:00:59.509Z,101880.47
2022-08-19T17:11:18.281Z,101869.91
2022-08-19T17:21:28.756Z,101892.13
2022-08-19T17:31:33.963Z,101863.47
2022-08-19T17:41:39.105Z,101897.22
2022-08-19T17:51:46.169Z,101906.16
2022-08-19T18:01:54.206Z,101915.16
2022-08-19T18:12:01.457Z,101914.91
2022-08-19T18:22:07.528Z,101889.22
2022-08-19T18:32:14.196Z,101934.06
2022-08-19T18:42:37.998Z,101916.97
2022-08-19T18:52:41.390Z,101855.91
2022-08-19T19:02:45.923Z,101969.03
2022-08-19T19:12:50.857Z,101768.22
2022-08-19T19:22:56.081Z,101962.13
2022-08-19T19:33:02.707Z,101976.25
2022-08-19T19:43:07.892Z,101996.16
2022-08-19T19:53:12.164Z,101935.78
2022-08-19T20:03:18.464Z,101950.66
2022-08-19T20:13:22.037Z,102005.13
2022-08-19T20:23:26.973Z,101854.91
2022-08-19T20:33:31.890Z,101973.91
2022-08-19T20:43:36.616Z,102009.06
2022-08-19T20:53:41.783Z,101993.09
2022-08-19T21:03:46.533Z,101713.66
2022-08-19T21:13:52.991Z,102035.78
2022-08-19T21:23:58.749Z,101975.44
2022-08-19T21:34:02.418Z,101889.94
2022-08-19T21:44:10.496Z,102044.84
2022-08-19T21:54:14.239Z,102024.09
2022-08-19T22:04:18.784Z,102043.69
2022-08-19T22:14:22.926Z,101938.34
2022-08-19T22:24:28.104Z,102074.72
2022-08-19T22:34:32.982Z,102074.25
2022-08-19T22:44:37.928Z,102085.47
2022-08-19T22:54:40.964Z,102062.66
2022-08-19T23:04:45.465Z,102011.38
2022-08-19T23:14:48.966Z,102029.44
2022-08-19T23:24:56.005Z,101842.34
2022-08-19T23:34:59.933Z,102102.56
2022-08-19T23:45:07.423Z,102012.00
2022-08-19T23:55:11.042Z,102120.53
